Time;durP1;ratioP1;P1;durP2;ratioP2;P2;SDS_P1;SDS_P2;PMS_P1;PMS_P2;Temp;Humidity;BMP_temperature;BMP_pressure;BME280_temperature;BME280_humidity;BME280_pressure;Samples;Min_cycle;Max_cycle;Signal;HPM_P1;HPM_P2
2021/12/13 00:03:00;;;;;;;4.77;3.20;;;;;;;4.26;69.73;98507.66;9845968;30;20123;-80
2021/12/13 00:08:26;;;;;;;4.30;3.05;;;;;;;4.28;69.71;98502.34;9757871;30;20129;-80
2021/12/13 00:13:56;;;;;;;4.60;2.88;;;;;;;4.36;69.62;98501.69;9853668;30;20133;-80
2021/12/13 00:19:19;;;;;;;3.53;2.50;;;;;;;4.39;69.95;98503.38;9868830;30;20071;-80
2021/12/13 00:24:42;;;;;;;4.37;2.80;;;;;;;4.41;69.98;98498.81;9844024;30;20088;-80
2021/12/13 00:30:11;;;;;;;4.32;2.95;;;;;;;4.37;69.74;98503.91;9856435;30;20054;-81
2021/12/13 00:35:45;;;;;;;3.65;2.70;;;;;;;4.35;69.64;98502.97;9844985;30;20063;-80
2021/12/13 00:41:15;;;;;;;4.22;2.65;;;;;;;4.32;69.73;98496.47;9846259;30;20068;-80
2021/12/13 00:46:38;;;;;;;3.22;2.58;;;;;;;4.29;69.66;98490.00;9844952;30;20104;-80
2021/12/13 00:52:02;;;;;;;3.33;2.17;;;;;;;4.29;70.06;98495.53;9857193;30;20073;-80
2021/12/13 00:57:29;;;;;;;3.75;2.60;;;;;;;4.29;69.75;98501.06;9844031;30;20056;-80
2021/12/13 01:03:00;;;;;;;3.92;2.67;;;;;;;4.29;69.97;98498.28;9866991;30;20048;-80
2021/12/13 01:08:52;;;;;;;4.65;2.60;;;;;;;4.30;69.90;98502.53;9856608;30;20055;-80
2021/12/13 01:14:17;;;;;;;3.10;2.50;;;;;;;4.36;69.67;98510.00;9880076;30;20047;-80
2021/12/13 01:19:56;;;;;;;4.07;2.70;;;;;;;4.32;70.25;98516.56;9867566;30;20071;-80
2021/12/13 01:31:02;;;;;;;2.97;2.28;;;;;;;4.31;70.16;98515.09;9857254;30;20055;-80
2021/12/13 01:36:27;;;;;;;2.97;2.35;;;;;;;4.35;70.05;98514.78;9853324;30;20127;-81
2021/12/13 01:41:54;;;;;;;2.70;2.28;;;;;;;4.35;70.10;98514.03;9854978;30;20078;-80
2021/12/13 01:47:22;;;;;;;3.50;2.50;;;;;;;4.31;70.15;98520.63;9843383;30;20075;-80
2021/12/13 01:52:43;;;;;;;2.90;2.15;;;;;;;4.33;70.13;98520.06;9855479;30;20048;-80
2021/12/13 02:03:57;;;;;;;3.00;2.10;;;;;;;4.37;70.12;98534.31;9867481;30;20063;-81
2021/12/13 02:09:25;;;;;;;3.47;2.40;;;;;;;4.38;70.20;98530.28;9852687;30;20063;-80
2021/12/13 02:20:38;;;;;;;2.97;2.30;;;;;;;4.39;70.22;98536.56;9857709;30;20060;-80
2021/12/13 02:25:59;;;;;;;3.53;2.15;;;;;;;4.38;70.26;98544.09;9839145;30;20052;-80
2021/12/13 02:31:27;;;;;;;2.33;1.88;;;;;;;4.37;70.58;98534.31;9827007;30;20055;-80
2021/12/13 02:36:50;;;;;;;2.75;2.03;;;;;;;4.40;70.65;98529.75;9851695;30;20062;-81
2021/12/13 02:42:14;;;;;;;3.15;2.42;;;;;;;4.41;70.22;98539.53;9840297;30;20047;-81
2021/12/13 02:47:38;;;;;;;3.22;2.28;;;;;;;4.39;70.48;98537.31;9840512;30;20040;-80
2021/12/13 02:53:00;;;;;;;3.60;2.70;;;;;;;4.46;70.77;98546.97;9839051;30;20258;-80
2021/12/13 02:58:22;;;;;;;4.18;2.83;;;;;;;4.48;70.54;98541.66;9838592;30;20131;-81
2021/12/13 03:03:47;;;;;;;4.60;2.30;;;;;;;4.49;70.69;98543.88;9844714;30;20104;-80
2021/12/13 03:09:12;;;;;;;3.28;2.42;;;;;;;4.52;70.55;98550.34;9848631;30;20109;-81
2021/12/13 03:14:40;;;;;;;3.35;2.35;;;;;;;4.52;70.45;98551.09;9836064;30;20575;-80
2021/12/13 03:20:19;;;;;;;2.53;2.13;;;;;;;4.53;70.68;98547.03;9838719;30;20047;-80
2021/12/13 03:25:40;;;;;;;2.40;1.85;;;;;;;4.58;70.63;98554.50;9852557;30;20046;-80
2021/12/13 03:31:14;;;;;;;2.83;2.03;;;;;;;4.59;70.33;98546.94;9849973;30;20039;-80
2021/12/13 03:36:44;;;;;;;3.53;2.08;;;;;;;4.53;70.49;98540.78;9848092;30;20060;-80
2021/12/13 03:42:11;;;;;;;2.47;2.17;;;;;;;4.55;70.42;98549.28;9848314;30;20556;-80
2021/12/13 03:47:37;;;;;;;3.08;2.47;;;;;;;4.55;70.38;98549.28;9839047;30;20105;-80
2021/12/13 03:53:00;;;;;;;3.42;2.40;;;;;;;4.57;70.61;98535.69;9845213;30;20073;-80
2021/12/13 03:58:22;;;;;;;2.50;2.05;;;;;;;4.56;70.58;98534.94;9840534;30;20051;-80
2021/12/13 04:03:43;;;;;;;2.53;2.17;;;;;;;4.56;70.05;98540.47;9822760;30;20040;-80
2021/12/13 04:09:04;;;;;;;2.97;2.05;;;;;;;4.57;70.18;98547.47;9836856;30;20476;-80
2021/12/13 04:14:31;;;;;;;4.80;2.00;;;;;;;4.59;70.26;98558.75;9821207;30;20479;-80
2021/12/13 04:19:57;;;;;;;2.38;2.17;;;;;;;4.59;70.38;98558.00;9839785;30;20519;-80
2021/12/13 04:25:21;;;;;;;2.30;1.73;;;;;;;4.55;70.34;98549.28;9833790;30;20039;-80
2021/12/13 04:30:55;;;;;;;2.27;1.90;;;;;;;4.60;70.83;98562.25;9823533;30;20467;-80
2021/12/13 04:36:20;;;;;;;3.05;1.60;;;;;;;4.62;70.87;98562.44;9839245;30;20078;-80
2021/12/13 04:41:59;;;;;;;2.95;1.98;;;;;;;4.62;70.68;98570.75;9835454;30;20048;-80
2021/12/13 04:47:22;;;;;;;2.58;1.75;;;;;;;4.68;70.55;98573.41;9847646;30;20097;-80
2021/12/13 04:52:44;;;;;;;2.97;1.90;;;;;;;4.69;70.21;98572.88;9834495;30;20050;-80
2021/12/13 04:58:09;;;;;;;2.40;1.90;;;;;;;4.69;70.59;98581.16;9840933;30;20044;-80
2021/12/13 05:03:37;;;;;;;2.35;1.70;;;;;;;4.70;70.51;98582.66;9839623;30;20058;-80
2021/12/13 05:08:59;;;;;;;2.55;1.75;;;;;;;4.71;70.58;98584.13;9827390;30;20040;-80
2021/12/13 05:14:37;;;;;;;2.85;2.25;;;;;;;4.78;70.88;98579.97;9822837;30;20055;-80
2021/12/13 05:20:20;;;;;;;2.60;2.00;;;;;;;4.74;70.88;98587.88;9844459;30;20060;-80
2021/12/13 05:25:43;;;;;;;2.72;1.67;;;;;;;4.74;70.52;98599.69;9833399;30;20410;-80
2021/12/13 05:31:08;;;;;;;2.53;1.70;;;;;;;4.80;70.90;98608.59;9840990;30;20123;-80
2021/12/13 05:36:32;;;;;;;2.05;1.70;;;;;;;4.84;70.76;98609.03;9830770;30;20083;-80
2021/12/13 05:41:55;;;;;;;;;;;;;;;4.83;70.69;98617.84;9827908;30;20406;-80
2021/12/13 05:47:22;;;;;;;2.00;1.45;;;;;;;4.81;70.71;98621.13;9845068;30;19926;-80
2021/12/13 05:52:44;;;;;;;2.17;1.40;;;;;;;4.84;70.87;98630.41;9854420;30;20043;-80
2021/12/13 05:58:05;;;;;;;2.28;1.67;;;;;;;4.88;70.73;98628.06;9862087;30;20135;-80
2021/12/13 06:03:31;;;;;;;2.08;1.70;;;;;;;4.90;70.85;98628.25;9852975;30;20056;-80
2021/12/13 06:08:54;;;;;;;1.95;1.70;;;;;;;4.86;70.66;98628.59;9835515;30;20056;-80
2021/12/13 06:14:20;;;;;;;2.30;1.88;;;;;;;4.82;70.55;98633.69;9831563;30;20136;-80
2021/12/13 06:19:47;;;;;;;4.68;2.78;;;;;;;4.80;70.83;98641.78;9833286;30;20062;-80
2021/12/13 06:25:12;;;;;;;3.25;2.03;;;;;;;4.81;70.94;98643.28;9829232;30;20454;-80
2021/12/13 06:30:38;;;;;;;3.03;1.98;;;;;;;4.86;70.26;98649.97;9831935;30;20502;-80
2021/12/13 06:36:01;;;;;;;1.98;1.77;;;;;;;4.88;70.74;98650.19;9835352;30;20059;-80
2021/12/13 06:41:31;;;;;;;2.22;1.80;;;;;;;4.84;70.66;98658.81;9829590;30;20044;-80
2021/12/13 06:46:56;;;;;;;2.63;2.28;;;;;;;4.87;70.62;98662.53;9860935;30;20139;-80
2021/12/13 06:52:22;;;;;;;2.25;1.90;;;;;;;4.89;70.70;98663.47;9849179;30;20079;-79
2021/12/13 06:57:54;;;;;;;2.65;1.95;;;;;;;4.91;71.07;98667.72;9848959;30;20051;-80
2021/12/13 07:03:19;;;;;;;1.95;1.75;;;;;;;4.94;70.71;98677.75;9836329;30;20048;-80
2021/12/13 07:08:42;;;;;;;2.30;1.75;;;;;;;5.01;70.91;98677.06;9826763;30;20052;-80
2021/12/13 07:14:06;;;;;;;1.77;1.42;;;;;;;5.01;70.84;98685.38;9815923;30;20055;-80
2021/12/13 07:19:27;;;;;;;2.13;1.80;;;;;;;5.01;70.80;98688.16;9818655;30;20117;-79
2021/12/13 07:24:53;;;;;;;3.65;2.65;;;;;;;5.05;71.05;98688.59;9815970;30;20052;-80
2021/12/13 07:30:21;;;;;;;3.30;2.42;;;;;;;5.12;71.00;98690.72;9813975;30;20499;-79
2021/12/13 07:35:47;;;;;;;3.78;3.08;;;;;;;5.13;70.61;98703.25;9817938;30;20511;-80
2021/12/13 07:41:08;;;;;;;3.53;3.22;;;;;;;5.12;70.68;98701.78;9815220;30;20048;-80
2021/12/13 07:46:31;;;;;;;3.30;2.58;;;;;;;5.15;70.42;98700.69;9827068;30;20047;-80
2021/12/13 07:51:56;;;;;;;3.50;2.63;;;;;;;5.11;71.20;98705.81;9840976;30;20495;-80
2021/12/13 07:57:21;;;;;;;1.83;1.65;;;;;;;5.13;70.81;98714.34;9850221;30;20090;-80
2021/12/13 08:02:53;;;;;;;2.92;1.90;;;;;;;5.21;70.89;98722.72;9862039;30;20124;-80
2021/12/13 08:08:26;;;;;;;2.10;1.63;;;;;;;5.30;71.44;98720.25;9862209;30;20058;-79
2021/12/13 08:13:58;;;;;;;2.63;2.05;;;;;;;5.32;71.54;98723.25;9849510;30;20134;-80
2021/12/13 08:19:23;;;;;;;3.03;2.17;;;;;;;5.38;71.24;98726.63;9849215;30;20583;-80
2021/12/13 08:24:52;;;;;;;3.33;2.08;;;;;;;5.52;70.97;98734.91;9825298;30;20458;-80
2021/12/13 08:30:22;;;;;;;2.78;2.22;;;;;;;5.57;70.58;98736.81;9842647;30;20154;-80
2021/12/13 08:35:47;;;;;;;2.53;2.13;;;;;;;5.60;70.74;98742.03;9862587;30;20502;-79
2021/12/13 08:41:32;;;;;;;3.10;2.08;;;;;;;5.68;70.54;98742.84;9862265;30;20055;-80
2021/12/13 08:46:55;;;;;;;3.25;1.63;;;;;;;5.78;70.75;98753.47;9864314;30;20048;-80
2021/12/13 08:52:36;;;;;;;4.50;2.42;;;;;;;5.82;70.75;98762.94;9850104;30;20043;-80
2021/12/13 08:58:17;;;;;;;2.88;2.20;;;;;;;5.84;70.61;98762.41;9849228;30;20527;-80
2021/12/13 09:03:46;;;;;;;4.03;2.47;;;;;;;5.89;70.67;98750.47;9874091;30;20119;-80
2021/12/13 09:09:15;;;;;;;3.55;2.10;;;;;;;5.94;70.74;98752.38;9849115;30;20129;-79
2021/12/13 09:14:41;;;;;;;3.63;2.28;;;;;;;6.00;70.84;98753.72;9848502;30;20131;-80
2021/12/13 09:20:11;;;;;;;2.15;1.70;;;;;;;6.12;70.77;98754.22;9848568;30;20051;-80
2021/12/13 09:25:50;;;;;;;3.25;2.15;;;;;;;6.27;70.81;98751.59;9854852;30;20056;-80
2021/12/13 09:31:37;;;;;;;2.13;1.60;;;;;;;6.64;70.42;98760.00;9847356;30;20104;-80
2021/12/13 09:36:58;;;;;;;4.60;2.08;;;;;;;6.77;69.92;98768.25;9849384;30;20052;-80
2021/12/13 10:26:41;;;;;;;4.47;2.20;;;;;;;7.11;69.57;98763.25;10625935;24;20052;-84
2021/12/13 12:01:14;;;;;;;4.65;3.30;;;;;;;8.38;67.69;98713.94;11159613;24;20120;-81
2021/12/13 12:07:05;;;;;;;5.13;3.05;;;;;;;8.51;67.35;98705.44;9823094;30;20079;-82
2021/12/13 12:12:29;;;;;;;3.83;2.50;;;;;;;8.53;67.27;98717.47;9789718;30;20052;-78
2021/12/13 12:17:50;;;;;;;4.43;2.90;;;;;;;8.60;66.89;98711.16;9797382;30;20082;-79
2021/12/13 12:23:24;;;;;;;6.15;3.30;;;;;;;8.66;66.65;98713.00;9823817;30;20029;-81
2021/12/13 12:28:46;;;;;;;3.40;2.38;;;;;;;8.63;67.00;98712.09;9840930;30;20040;-82
2021/12/13 12:34:08;;;;;;;3.88;2.20;;;;;;;8.56;67.02;98704.47;9870545;30;20062;-82
2021/12/13 12:39:50;;;;;;;5.65;2.63;;;;;;;8.57;66.96;98711.53;9826206;30;20056;-77
2021/12/13 12:45:30;;;;;;;4.18;2.53;;;;;;;8.56;66.80;98707.25;9801504;30;20469;-77
2021/12/13 12:50:57;;;;;;;4.00;2.85;;;;;;;8.53;67.18;98709.13;9798481;30;20116;-78
2021/12/13 12:56:26;;;;;;;4.55;2.92;;;;;;;8.44;66.85;98709.69;9795510;30;20056;-78
2021/12/13 13:02:00;;;;;;;5.55;3.40;;;;;;;8.44;67.21;98717.28;9792323;30;20113;-78
2021/12/13 13:07:27;;;;;;;7.40;3.20;;;;;;;8.39;66.90;98716.16;9799916;30;20603;-78
2021/12/13 13:12:48;;;;;;;5.75;3.15;;;;;;;8.30;67.21;98719.50;9812605;30;20052;-78
2021/12/13 13:18:11;;;;;;;6.03;4.10;;;;;;;8.27;66.98;98729.69;9812606;30;20071;-79
2021/12/13 13:23:41;;;;;;;5.22;3.70;;;;;;;8.20;67.37;98730.44;9794084;30;20048;-78
2021/12/13 13:29:12;;;;;;;6.60;4.05;;;;;;;8.09;67.18;98732.81;9811182;30;20044;-79
2021/12/13 13:34:39;;;;;;;8.43;4.68;;;;;;;8.02;67.56;98732.28;9824167;30;20109;-78
2021/12/13 13:40:30;;;;;;;7.82;3.92;;;;;;;7.95;67.59;98740.59;9818291;30;20060;-78
2021/12/13 13:45:53;;;;;;;5.72;4.00;;;;;;;7.87;67.46;98746.13;9804562;30;20048;-78
2021/12/13 13:51:15;;;;;;;7.88;4.30;;;;;;;7.79;68.06;98747.41;9814795;30;20047;-81
2021/12/13 13:56:39;;;;;;;6.25;4.00;;;;;;;7.73;67.78;98747.59;9821728;30;20048;-79
2021/12/13 14:02:04;;;;;;;7.50;4.50;;;;;;;7.70;68.21;98760.53;9811399;30;20056;-78
2021/12/13 14:07:54;;;;;;;6.78;4.47;;;;;;;7.64;68.18;98751.66;9827271;30;20060;-78
2021/12/13 14:13:47;;;;;;;6.13;4.60;;;;;;;7.58;68.20;98747.53;9818621;30;20060;-78
2021/12/13 14:19:13;;;;;;;7.33;4.97;;;;;;;7.57;68.69;98757.91;9809879;30;20056;-78
2021/12/13 14:24:45;;;;;;;8.35;4.75;;;;;;;7.56;68.45;98753.66;9810154;30;20273;-78
2021/12/13 14:30:18;;;;;;;6.15;4.50;;;;;;;7.54;68.63;98763.84;9798284;30;20055;-78
2021/12/13 14:36:18;;;;;;;6.20;4.18;;;;;;;7.49;68.34;98759.91;9810480;30;20106;-78
2021/12/13 14:41:44;;;;;;;6.28;4.22;;;;;;;7.45;68.92;98767.88;9834262;30;20496;-78
2021/12/13 14:47:41;;;;;;;5.93;4.03;;;;;;;7.43;68.77;98773.97;9816824;30;20049;-78
2021/12/13 14:53:07;;;;;;;6.18;4.13;;;;;;;7.43;68.89;98773.22;9822388;30;20051;-78
2021/12/13 14:58:35;;;;;;;6.47;3.50;;;;;;;7.40;68.87;98771.53;9817404;30;20102;-78
2021/12/13 15:04:04;;;;;;;6.38;4.10;;;;;;;7.43;69.16;98781.53;9780426;30;20049;-78
2021/12/13 15:11:22;;;;;;;6.55;4.32;;;;;;;7.42;69.39;98791.19;9690637;30;20061;-78
2021/12/13 15:16:51;;;;;;;7.57;4.43;;;;;;;7.44;69.26;98800.47;9680842;30;20418;-78
2021/12/13 15:22:15;;;;;;;5.72;4.22;;;;;;;7.41;69.36;98800.81;9681904;30;20125;-78
2021/12/13 15:27:38;;;;;;;6.53;4.35;;;;;;;7.40;69.96;98800.06;9680750;30;20069;-79
2021/12/13 15:33:36;;;;;;;6.82;4.68;;;;;;;7.39;69.79;98814.50;9684828;30;20430;-79
2021/12/13 15:39:06;;;;;;;8.15;4.78;;;;;;;7.38;69.72;98813.03;9750460;30;20064;-79
2021/12/13 15:44:31;;;;;;;7.68;4.85;;;;;;;7.39;69.72;98814.50;9779158;30;20052;-78
2021/12/13 15:49:53;;;;;;;9.57;5.10;;;;;;;7.38;70.42;98818.56;9778023;30;20052;-78
2021/12/13 15:55:15;;;;;;;6.90;4.47;;;;;;;7.37;69.76;98833.75;9778993;30;20440;-78
2021/12/13 16:00:37;;;;;;;6.95;4.60;;;;;;;7.37;69.93;98828.19;9778227;30;20064;-79
2021/12/13 16:05:58;;;;;;;7.85;5.35;;;;;;;7.38;70.01;98840.78;9813504;30;20052;-78
2021/12/13 16:11:26;;;;;;;9.15;5.68;;;;;;;7.38;70.20;98829.69;9786716;30;20075;-78
2021/12/13 16:17:01;;;;;;;7.85;5.28;;;;;;;7.40;70.72;98832.66;9813753;30;20056;-78
2021/12/13 16:22:51;;;;;;;8.57;5.32;;;;;;;7.41;70.41;98837.66;9801018;30;20446;-78
2021/12/13 16:28:12;;;;;;;7.68;5.57;;;;;;;7.43;70.82;98835.09;9812837;30;20040;-78
2021/12/13 16:33:46;;;;;;;8.40;5.60;;;;;;;7.44;70.76;98836.59;9839083;30;20053;-80
2021/12/13 16:39:17;;;;;;;8.30;5.03;;;;;;;7.45;70.83;98848.44;9813611;30;20074;-78
2021/12/13 16:44:42;;;;;;;8.30;5.40;;;;;;;7.46;70.82;98844.38;9824433;30;20048;-78
2021/12/13 16:50:32;;;;;;;7.53;5.32;;;;;;;7.47;70.51;98845.84;9820323;30;20567;-78
2021/12/13 16:55:52;;;;;;;8.18;5.70;;;;;;;7.47;70.74;98862.53;9824216;30;20044;-78
2021/12/13 17:01:16;;;;;;;8.30;6.20;;;;;;;7.44;70.98;98861.59;9812579;30;20068;-80
2021/12/13 17:06:49;;;;;;;7.55;5.80;;;;;;;7.45;71.09;98854.00;9811697;30;20491;-79
2021/12/13 17:12:11;;;;;;;7.72;5.45;;;;;;;7.46;70.93;98863.81;9816153;30;20102;-80
2021/12/13 17:30:27;;;;;;;6.88;4.75;;;;;;;7.50;71.24;98869.00;10480360;24;20060;-82
2021/12/13 17:35:48;;;;;;;6.78;4.90;;;;;;;7.51;71.40;98868.47;10675796;24;20068;-78
2021/12/13 17:47:30;;;;;;;7.72;5.07;;;;;;;7.55;71.59;98865.34;10026204;24;19926;-77
2021/12/13 17:53:30;;;;;;;8.05;4.88;;;;;;;7.58;71.72;98864.97;9823905;30;20083;-80
2021/12/13 17:59:13;;;;;;;7.70;5.18;;;;;;;7.59;71.83;98868.50;9824425;30;20079;-78
2021/12/13 18:04:56;;;;;;;8.15;4.90;;;;;;;7.61;71.49;98868.69;9813432;30;20052;-78
2021/12/13 18:10:25;;;;;;;10.07;5.78;;;;;;;7.64;71.76;98881.50;9813848;30;20048;-78
2021/12/13 18:15:53;;;;;;;6.50;5.45;;;;;;;7.66;72.19;98874.09;9827561;30;20044;-85
2021/12/13 18:21:14;;;;;;;6.43;5.03;;;;;;;7.68;72.03;98879.84;10927596;24;20044;-83
2021/12/13 18:51:56;;;;;;;8.35;6.03;;;;;;;7.69;71.66;98889.69;11951807;24;20031;31
2021/12/13 18:57:30;;;;;;;7.60;5.90;;;;;;;7.69;72.39;98892.44;9745368;30;20033;-82
2021/12/13 19:02:55;;;;;;;7.63;5.85;;;;;;;7.66;71.87;98892.81;9753161;30;20096;-82
2021/12/13 19:08:20;;;;;;;7.82;5.93;;;;;;;7.66;71.94;98907.47;9737061;30;20034;-82
2021/12/13 19:13:48;;;;;;;8.45;5.90;;;;;;;7.62;72.20;98901.50;9732609;30;20058;-80
2021/12/13 19:19:19;;;;;;;7.90;6.00;;;;;;;7.62;72.53;98898.72;9697652;30;20077;-81
2021/12/13 19:24:39;;;;;;;7.78;5.93;;;;;;;7.58;72.38;98909.44;9741374;30;20123;-80
2021/12/13 19:30:19;;;;;;;8.27;5.85;;;;;;;7.54;72.84;98914.63;9784368;30;20033;-80
2021/12/13 19:35:46;;;;;;;10.05;6.70;;;;;;;7.47;73.00;98912.53;9781700;30;20065;-82
2021/12/13 19:41:40;;;;;;;9.90;6.93;;;;;;;7.46;72.97;98920.13;9758199;30;20050;-81
2021/12/13 19:47:13;;;;;;;8.95;5.90;;;;;;;7.45;73.27;98912.34;9763243;30;20051;-80
2021/12/13 19:52:39;;;;;;;6.65;5.60;;;;;;;7.45;73.32;98912.34;9749323;30;20069;-81
2021/12/13 19:58:12;;;;;;;7.43;5.93;;;;;;;7.45;73.49;98899.19;9748935;30;20050;-80
2021/12/13 20:03:49;;;;;;;8.80;6.07;;;;;;;7.47;73.35;98893.06;9745800;30;20046;-79
2021/12/13 20:09:14;;;;;;;9.77;5.47;;;;;;;7.47;73.54;98887.53;9759100;30;20058;-80
2021/12/13 20:14:34;;;;;;;7.90;5.40;;;;;;;7.46;73.45;98877.69;9746706;30;20129;-79
2021/12/13 20:20:01;;;;;;;8.43;5.72;;;;;;;7.47;73.65;98888.25;9775846;30;20084;-78
2021/12/13 20:25:29;;;;;;;8.20;5.82;;;;;;;7.47;73.53;98881.97;9776795;30;20054;-80
2021/12/13 20:31:20;;;;;;;7.50;5.70;;;;;;;7.50;73.07;98885.69;9745472;30;20033;-81
2021/12/13 20:36:44;;;;;;;7.47;5.10;;;;;;;7.51;73.29;98881.59;9757339;30;20056;-80
2021/12/13 20:42:19;;;;;;;7.38;5.03;;;;;;;7.50;73.79;98874.56;9751075;30;20048;-82
2021/12/13 20:47:41;;;;;;;;;;;;;;;7.51;73.57;98879.56;9758160;30;20049;-80
2021/12/13 20:53:02;;;;;;;6.95;5.15;;;;;;;7.53;73.46;98879.78;9740608;30;19975;-80
2021/12/13 20:58:35;;;;;;;8.07;5.60;;;;;;;7.52;73.40;98878.28;9716300;30;20046;-81
2021/12/13 21:04:03;;;;;;;6.65;4.90;;;;;;;7.53;73.53;98877.00;9726751;30;20054;-80
2021/12/13 21:09:34;;;;;;;9.23;5.80;;;;;;;7.55;73.63;98879.25;9705620;30;20054;-79
2021/12/13 21:14:59;;;;;;;8.57;5.65;;;;;;;7.55;73.53;98879.97;9688052;30;20065;-79
2021/12/13 21:20:29;;;;;;;7.60;5.55;;;;;;;7.52;73.28;98872.72;9693233;30;20069;-79
2021/12/13 21:25:54;;;;;;;8.00;5.80;;;;;;;7.52;73.47;98878.28;9672180;30;20057;-79
2021/12/13 21:31:32;;;;;;;8.55;5.15;;;;;;;7.52;73.65;98878.28;9702242;30;20077;-78
2021/12/13 21:42:33;;;;;;;10.73;7.50;;;;;;;7.50;73.70;98874.56;9699715;30;20540;-78
2021/12/13 21:48:22;;;;;;;8.25;5.72;;;;;;;7.47;73.65;98887.53;9688251;30;20502;-79
2021/12/13 21:54:00;;;;;;;7.50;5.22;;;;;;;7.50;73.51;98883.63;9720318;30;20068;-80
2021/12/13 21:59:30;;;;;;;7.55;5.63;;;;;;;7.46;73.66;98872.88;9722927;30;20072;-78
2021/12/13 22:05:27;;;;;;;8.90;6.28;;;;;;;7.49;73.42;98881.41;9700520;30;20061;-77
2021/12/13 22:10:50;;;;;;;10.05;6.70;;;;;;;7.47;73.92;98876.41;9663934;30;20069;-79
2021/12/13 22:16:16;;;;;;;8.98;6.30;;;;;;;7.47;73.35;98881.97;9655608;30;20506;-79
2021/12/13 22:21:37;;;;;;;9.45;6.47;;;;;;;7.45;73.64;98873.44;9636558;30;20094;-78
2021/12/13 22:27:05;;;;;;;8.18;6.05;;;;;;;7.43;73.58;98884.34;9650933;30;20068;-78
2021/12/13 22:32:26;;;;;;;8.95;6.00;;;;;;;7.37;73.65;98887.28;9651888;30;20058;-78
2021/12/13 22:37:52;;;;;;;8.63;6.00;;;;;;;7.35;73.64;98880.78;9639846;30;20058;-78
2021/12/13 22:43:25;;;;;;;9.48;6.15;;;;;;;7.34;73.62;98884.84;9703595;30;20049;-79
2021/12/13 22:48:46;;;;;;;7.50;5.53;;;;;;;7.31;73.66;98874.81;9712293;30;20076;-79
2021/12/13 22:54:07;;;;;;;9.07;6.68;;;;;;;7.32;73.78;98868.72;9712045;30;20099;-79
2021/12/13 22:59:30;;;;;;;8.43;6.30;;;;;;;7.27;73.67;98874.44;9725952;30;20050;-79
2021/12/13 23:04:57;;;;;;;8.90;6.90;;;;;;;7.24;73.67;98864.41;9710902;30;20053;-78
2021/12/13 23:10:29;;;;;;;10.05;7.13;;;;;;;7.21;73.83;98851.59;9701631;30;20050;-79
2021/12/13 23:16:16;;;;;;;8.07;6.18;;;;;;;7.20;73.72;98847.34;9704683;30;20050;-79
2021/12/13 23:21:39;;;;;;;10.30;6.78;;;;;;;7.21;73.73;98846.06;9722813;30;20057;-78
2021/12/13 23:27:06;;;;;;;8.80;7.00;;;;;;;7.19;73.88;98852.16;9729029;30;20053;-78
2021/12/13 23:32:30;;;;;;;9.40;6.68;;;;;;;7.15;73.89;98855.28;9708497;30;20052;-79
2021/12/13 23:37:53;;;;;;;9.70;6.83;;;;;;;7.15;73.88;98849.00;9709234;30;20119;-79
2021/12/13 23:48:53;;;;;;;8.88;6.38;;;;;;;7.14;74.00;98855.81;9731763;30;20041;-78
2021/12/13 23:54:14;;;;;;;9.05;6.38;;;;;;;7.13;73.91;98855.06;9720827;30;20073;-78
2021/12/13 23:59:35;;;;;;;8.32;5.90;;;;;;;7.16;74.21;98844.94;9707975;30;20124;-79
